Terminal Aerodrome Forecast
Issued by NWS

Home | Current Version | Previous Version | Text Only | Print | Product List | Glossary On
Versions: 1 2 3 4 5 6 7 8 9 10 11 12 13 14 15 16 17 18 19 20 21 22 23 24 25
008
FTUS43 KDLH 251422 AAA
TAFHIB
TAF AMD
KHIB 251422Z 2514/2612 32012KT P6SM SKC
     FM251500 32011KT P6SM SCT035 BKN060
     FM252000 29010KT P6SM VCSH SCT020 BKN050
     FM260500 28004KT 6SM -SN BKN017 OVC035=

USA.gov is the U.S. government's official web portal to all federal, state and local government web resources and services.